Time;durP1;ratioP1;P1;durP2;ratioP2;P2;SDS_P1;SDS_P2;PMS_P1;PMS_P2;Temp;Humidity;BMP_temperature;BMP_pressure;BME280_temperature;BME280_humidity;BME280_pressure;Samples;Min_cycle;Max_cycle;Signal;HPM_P1;HPM_P2
2021/11/14 00:01:57;;;;;;;19.73;13.90;;;9.90;99.90;;;;;;5070074;28;20100;-84
2021/11/14 00:04:23;;;;;;;20.50;14.63;;;9.90;99.90;;;;;;5053607;28;20040;-84
2021/11/14 00:06:49;;;;;;;19.97;14.70;;;9.90;99.90;;;;;;5054353;28;20037;-83
2021/11/14 00:09:15;;;;;;;24.57;14.53;;;9.90;99.90;;;;;;5054175;28;20013;-84
2021/11/14 00:12:48;;;;;;;22.03;14.63;;;9.90;99.90;;;;;;5070907;28;20044;-83
2021/11/14 00:15:29;;;;;;;23.67;15.43;;;9.90;99.90;;;;;;5058274;28;20052;-84
2021/11/14 00:17:55;;;;;;;22.03;14.40;;;9.90;99.90;;;;;;5069797;28;20036;-85
2021/11/14 00:20:22;;;;;;;23.80;14.80;;;9.90;99.90;;;;;;5053033;28;20139;-82
2021/11/14 00:22:49;;;;;;;22.50;15.50;;;9.90;99.90;;;;;;5072120;28;20033;-82
2021/11/14 00:26:02;;;;;;;23.37;14.90;;;9.90;99.90;;;;;;5071561;28;20039;-85
2021/11/14 00:29:12;;;;;;;22.30;15.07;;;9.90;99.90;;;;;;5053773;28;20503;-83
2021/11/14 00:32:38;;;;;;;24.97;14.87;;;9.90;99.90;;;;;;5030432;28;20064;-84
2021/11/14 00:35:06;;;;;;;24.70;15.73;;;9.90;99.90;;;;;;5029686;28;20029;-84
2021/11/14 00:41:04;;;;;;;23.03;15.40;;;9.80;99.90;;;;;;5071871;28;20055;-84
2021/11/14 00:43:29;;;;;;;22.53;15.40;;;9.90;99.90;;;;;;5053161;28;20091;-84
2021/11/14 00:45:55;;;;;;;25.33;16.93;;;9.90;99.90;;;;;;5052515;28;20073;-84
2021/11/14 00:48:21;;;;;;;22.90;16.33;;;9.90;99.90;;;;;;5070518;28;20090;-83
2021/11/14 00:50:48;;;;;;;24.80;16.30;;;9.90;99.90;;;;;;5056233;28;20013;-82
2021/11/14 00:53:18;;;;;;;25.03;16.73;;;9.90;99.90;;;;;;5056809;28;20044;-84
2021/11/14 00:55:45;;;;;;;24.43;16.87;;;9.80;99.90;;;;;;5074591;28;20074;-84
2021/11/14 00:58:11;;;;;;;24.77;16.07;;;9.90;99.90;;;;;;5057103;28;20035;-82
2021/11/14 01:00:38;;;;;;;26.97;17.70;;;9.80;99.90;;;;;;5072066;28;20056;-84
2021/11/14 01:03:06;;;;;;;26.20;17.50;;;9.90;99.90;;;;;;5056142;28;20048;-85
2021/11/14 01:05:33;;;;;;;24.87;17.47;;;9.90;99.90;;;;;;5074309;28;20053;-83
2021/11/14 01:08:00;;;;;;;27.23;17.93;;;9.90;99.90;;;;;;5055794;28;20629;-84
2021/11/14 01:10:32;;;;;;;26.30;17.50;;;9.90;99.90;;;;;;5073153;28;20056;-83
2021/11/14 01:12:58;;;;;;;25.50;17.43;;;9.80;99.90;;;;;;5055606;28;20037;-84
2021/11/14 01:15:26;;;;;;;21.20;16.37;;;9.90;99.90;;;;;;5072069;28;20044;-84
2021/11/14 01:17:52;;;;;;;24.73;16.20;;;9.90;99.90;;;;;;5055866;28;20033;-84
2021/11/14 01:20:24;;;;;;;24.90;16.63;;;9.90;99.90;;;;;;5072426;28;20085;-83
2021/11/14 01:22:52;;;;;;;23.20;16.30;;;9.90;99.90;;;;;;5073901;28;20036;-84
2021/11/14 01:25:19;;;;;;;23.20;16.37;;;9.90;99.90;;;;;;5055744;28;20025;-84
2021/11/14 01:27:46;;;;;;;26.23;17.97;;;9.90;99.90;;;;;;5056715;28;20094;-84
2021/11/14 01:30:25;;;;;;;22.33;16.00;;;9.90;99.90;;;;;;5055521;28;20029;-84
2021/11/14 01:32:52;;;;;;;24.13;16.83;;;9.90;99.90;;;;;;5055756;28;20043;-84
2021/11/14 01:35:19;;;;;;;25.10;17.03;;;9.90;99.90;;;;;;5054981;28;20017;-84
2021/11/14 01:37:46;;;;;;;28.67;17.57;;;9.90;99.90;;;;;;5073014;28;20033;-84
2021/11/14 01:40:17;;;;;;;28.83;17.40;;;9.90;99.90;;;;;;5056044;28;20032;-85
2021/11/14 01:42:43;;;;;;;29.00;18.27;;;9.90;99.90;;;;;;5055657;28;20017;-84
2021/11/14 01:46:00;;;;;;;26.47;17.63;;;9.90;99.90;;;;;;5039150;28;20040;-85
2021/11/14 01:49:08;;;;;;;24.80;17.00;;;9.90;99.90;;;;;;5004964;28;20148;-83
2021/11/14 01:51:34;;;;;;;31.83;18.67;;;10.00;99.90;;;;;;5073267;28;20056;-84
2021/11/14 01:54:57;;;;;;;28.37;18.60;;;10.00;99.90;;;;;;5073782;28;20035;-85
2021/11/14 01:58:10;;;;;;;26.37;18.40;;;9.90;99.90;;;;;;5056671;28;20040;-83
2021/11/14 02:00:59;;;;;;;27.33;18.10;;;9.90;99.90;;;;;;5053832;28;20017;-84
2021/11/14 02:03:26;;;;;;;28.98;19.25;;;9.90;99.90;;;;;;5072886;28;20025;-84
2021/11/14 02:05:53;;;;;;;28.73;18.90;;;10.00;99.90;;;;;;5072842;28;20029;-84
2021/11/14 02:08:19;;;;;;;27.60;17.37;;;9.90;99.90;;;;;;5037209;28;20025;-84
2021/11/14 02:10:46;;;;;;;27.23;17.33;;;9.90;99.90;;;;;;5036939;28;20101;-84
2021/11/14 02:13:13;;;;;;;26.07;17.23;;;9.90;99.90;;;;;;5070988;28;20167;-84
2021/11/14 02:15:40;;;;;;;28.60;18.63;;;10.00;99.90;;;;;;5053963;28;20024;-83
2021/11/14 02:18:08;;;;;;;30.47;18.97;;;10.00;99.90;;;;;;5069338;28;20051;-84
2021/11/14 02:20:34;;;;;;;30.37;18.50;;;9.90;99.90;;;;;;5069176;28;20028;-83
2021/11/14 02:23:01;;;;;;;31.40;19.17;;;9.90;99.90;;;;;;5070282;28;20029;-84
2021/11/14 02:25:27;;;;;;;31.20;19.63;;;10.00;99.90;;;;;;5052621;28;20028;-84
2021/11/14 02:27:54;;;;;;;30.17;19.90;;;9.90;99.90;;;;;;5051919;28;20106;-84
2021/11/14 02:30:22;;;;;;;30.17;20.03;;;10.00;99.90;;;;;;5052714;28;20032;-84
2021/11/14 02:32:50;;;;;;;29.90;19.60;;;9.90;99.90;;;;;;5052341;28;20141;-84
2021/11/14 02:35:16;;;;;;;30.40;18.83;;;9.90;99.90;;;;;;5051635;28;20045;-84
2021/11/14 02:37:42;;;;;;;30.10;19.13;;;9.90;99.90;;;;;;5051578;28;20036;-84
2021/11/14 02:40:11;;;;;;;31.13;19.47;;;10.00;99.90;;;;;;5050691;28;20045;-84
2021/11/14 02:42:37;;;;;;;31.67;20.00;;;10.00;99.90;;;;;;5021533;28;20072;-84
2021/11/14 02:45:05;;;;;;;29.13;19.70;;;9.90;99.90;;;;;;5034972;28;20060;-84
2021/11/14 02:47:31;;;;;;;32.33;20.40;;;9.90;99.90;;;;;;5053366;28;20050;-84
2021/11/14 02:49:57;;;;;;;30.27;20.00;;;9.90;99.90;;;;;;5052266;28;20521;-84
2021/11/14 02:52:23;;;;;;;30.63;20.33;;;9.90;99.90;;;;;;5053090;28;20466;-83
2021/11/14 02:54:49;;;;;;;29.97;19.80;;;9.90;99.90;;;;;;5053303;28;20122;-84
2021/11/14 02:57:14;;;;;;;33.83;19.90;;;9.90;99.90;;;;;;5035517;28;20032;-82
2021/11/14 02:59:40;;;;;;;29.93;18.87;;;9.90;99.90;;;;;;5033656;28;20540;-83
2021/11/14 03:02:06;;;;;;;29.30;19.77;;;9.90;99.90;;;;;;5052725;28;20036;-85
2021/11/14 03:04:32;;;;;;;32.23;19.43;;;9.90;99.90;;;;;;5034785;28;20071;-84
2021/11/14 03:06:59;;;;;;;30.23;19.47;;;9.90;99.90;;;;;;5051696;28;20036;-84
2021/11/14 03:09:26;;;;;;;29.97;18.93;;;9.90;99.90;;;;;;5052341;28;20033;-83
2021/11/14 03:11:56;;;;;;;27.40;18.50;;;9.90;99.90;;;;;;5034426;28;20032;-84
2021/11/14 03:14:22;;;;;;;31.70;19.93;;;9.90;99.90;;;;;;5051550;28;20025;-84
2021/11/14 03:16:48;;;;;;;30.80;19.53;;;9.90;99.90;;;;;;5053100;28;20064;-84
2021/11/14 03:19:14;;;;;;;30.03;19.10;;;9.80;99.90;;;;;;5051226;28;20041;-85
2021/11/14 03:21:41;;;;;;;30.00;18.57;;;9.80;99.90;;;;;;5035464;28;20451;-84
2021/11/14 03:24:08;;;;;;;30.73;18.90;;;9.80;99.90;;;;;;5051557;28;20040;-84
2021/11/14 03:26:34;;;;;;;31.47;20.40;;;9.90;99.90;;;;;;5033503;28;20055;-83
2021/11/14 03:29:00;;;;;;;33.70;19.83;;;9.80;99.90;;;;;;5032906;28;20033;-83
2021/11/14 03:31:27;;;;;;;32.33;19.70;;;9.80;99.90;;;;;;5032829;28;20037;-82
2021/11/14 03:33:56;;;;;;;31.87;20.37;;;9.80;99.90;;;;;;5049931;28;20381;-82
2021/11/14 03:36:21;;;;;;;30.93;20.07;;;9.70;99.90;;;;;;5049932;28;20029;-85
2021/11/14 03:38:50;;;;;;;31.30;19.43;;;9.80;99.90;;;;;;5049174;28;20035;-85
2021/11/14 03:41:19;;;;;;;35.65;20.58;;;9.80;99.90;;;;;;5050668;28;20033;-85
2021/11/14 03:43:46;;;;;;;35.65;20.08;;;9.80;99.90;;;;;;5033058;28;20029;-85
2021/11/14 03:46:12;;;;;;;33.00;19.90;;;9.80;99.90;;;;;;5049942;28;20025;-82
2021/11/14 03:48:40;;;;;;;34.37;20.47;;;9.80;99.90;;;;;;5033448;28;20079;-82
2021/11/14 03:51:07;;;;;;;34.17;20.10;;;9.80;99.90;;;;;;5032880;28;20056;-83
2021/11/14 03:53:33;;;;;;;35.83;21.30;;;9.80;99.90;;;;;;5050401;28;20384;-84
2021/11/14 03:56:00;;;;;;;32.27;19.40;;;9.80;99.90;;;;;;5048770;28;20036;-83
2021/11/14 03:58:26;;;;;;;36.27;21.90;;;9.80;99.90;;;;;;5051480;28;20025;-84
2021/11/14 04:00:56;;;;;;;33.03;20.63;;;9.80;99.90;;;;;;5032632;28;20618;-85
2021/11/14 04:03:22;;;;;;;33.70;20.70;;;9.90;99.90;;;;;;5033323;28;20645;-84
2021/11/14 04:05:48;;;;;;;34.33;22.17;;;9.80;99.90;;;;;;5033308;28;20025;-83
2021/11/14 04:08:17;;;;;;;34.23;21.13;;;9.80;99.90;;;;;;5033199;28;20090;-82
2021/11/14 04:10:45;;;;;;;35.17;20.70;;;9.80;99.90;;;;;;5032796;28;20157;-82
2021/11/14 04:13:12;;;;;;;32.10;20.23;;;9.80;99.90;;;;;;5049826;28;20033;-82
2021/11/14 04:15:38;;;;;;;33.93;20.37;;;9.80;99.90;;;;;;5050597;28;20037;-84
2021/11/14 04:18:04;;;;;;;35.23;21.87;;;9.80;99.90;;;;;;5033865;28;20132;-84
2021/11/14 04:20:33;;;;;;;34.20;21.50;;;9.80;99.90;;;;;;5051241;28;20025;-82
2021/11/14 04:22:59;;;;;;;33.47;20.83;;;9.80;99.90;;;;;;5034718;28;20033;-85
2021/11/14 04:25:26;;;;;;;33.93;19.13;;;9.80;99.90;;;;;;5054131;28;20116;-83
2021/11/14 04:27:52;;;;;;;30.03;19.00;;;9.80;99.90;;;;;;5053455;28;20128;-84
2021/11/14 04:30:19;;;;;;;29.57;19.90;;;9.80;99.90;;;;;;5036779;28;20394;-84
2021/11/14 04:32:45;;;;;;;32.13;19.77;;;9.80;99.90;;;;;;5053653;28;20032;-84
2021/11/14 04:35:11;;;;;;;29.60;19.30;;;9.80;99.90;;;;;;5055262;28;20029;-82
2021/11/14 04:37:38;;;;;;;29.67;18.80;;;9.80;99.90;;;;;;5055762;28;20053;-82
2021/11/14 04:40:06;;;;;;;29.17;17.97;;;9.80;99.90;;;;;;5036637;28;20087;-84
2021/11/14 04:42:32;;;;;;;34.00;20.00;;;9.80;99.90;;;;;;5053774;28;20033;-84
2021/11/14 04:44:59;;;;;;;27.77;18.13;;;9.80;99.90;;;;;;5053645;28;20052;-84
2021/11/14 04:47:25;;;;;;;29.73;18.50;;;9.70;99.90;;;;;;5037094;28;20500;-83
2021/11/14 04:49:50;;;;;;;37.77;22.50;;;9.80;99.90;;;;;;5036410;28;20037;-83
2021/11/14 04:52:16;;;;;;;37.67;21.83;;;9.80;99.90;;;;;;5053285;28;20040;-84
2021/11/14 04:54:42;;;;;;;34.60;21.23;;;9.70;99.90;;;;;;5054699;28;20345;-85
2021/11/14 04:57:08;;;;;;;35.93;20.43;;;9.80;99.90;;;;;;5036779;28;20029;-83
2021/11/14 04:59:34;;;;;;;30.73;19.50;;;9.80;99.90;;;;;;5052334;28;20029;-84
2021/11/14 05:02:00;;;;;;;31.83;19.83;;;9.80;99.90;;;;;;5053050;28;20378;-82
2021/11/14 05:04:26;;;;;;;29.83;19.00;;;9.70;99.90;;;;;;5036017;28;20120;-83
2021/11/14 05:06:52;;;;;;;30.53;18.50;;;9.70;99.90;;;;;;5054453;28;20411;-82
2021/11/14 05:09:18;;;;;;;26.67;17.80;;;9.80;99.90;;;;;;5036051;28;20090;-82
2021/11/14 05:11:44;;;;;;;26.17;17.73;;;9.80;99.90;;;;;;5054675;28;20029;-82
2021/11/14 05:14:10;;;;;;;26.17;17.27;;;9.80;99.90;;;;;;5052620;28;20028;-83
2021/11/14 05:16:35;;;;;;;22.90;14.90;;;9.80;99.90;;;;;;5052878;28;20025;-83
2021/11/14 05:19:01;;;;;;;21.53;15.13;;;9.80;99.90;;;;;;5051658;28;20028;-83
2021/11/14 05:21:27;;;;;;;23.20;14.47;;;9.80;99.90;;;;;;5052169;28;20040;-83
2021/11/14 05:23:53;;;;;;;20.90;13.90;;;9.70;99.90;;;;;;5053778;28;20033;-82
2021/11/14 05:26:19;;;;;;;23.10;14.90;;;9.70;99.90;;;;;;5035526;28;20033;-84
2021/11/14 05:28:45;;;;;;;22.10;14.43;;;9.70;99.90;;;;;;5052135;28;20029;-83
2021/11/14 05:31:10;;;;;;;23.70;14.60;;;9.70;99.90;;;;;;5034721;28;20116;-82
2021/11/14 05:33:36;;;;;;;24.37;15.33;;;9.60;99.90;;;;;;5019110;28;20067;-82
2021/11/14 05:36:03;;;;;;;27.47;17.57;;;9.60;99.90;;;;;;5052949;28;20513;-85
2021/11/14 05:38:28;;;;;;;28.60;18.97;;;9.60;99.90;;;;;;5035739;28;20477;-82
2021/11/14 05:40:54;;;;;;;30.80;20.90;;;9.60;99.90;;;;;;5035469;28;20025;-84
2021/11/14 05:43:20;;;;;;;28.73;19.40;;;9.60;99.90;;;;;;5035737;28;20028;-85
2021/11/14 05:45:46;;;;;;;33.10;21.47;;;9.60;99.90;;;;;;5053607;28;20420;-84
2021/11/14 05:48:12;;;;;;;33.53;23.17;;;9.60;99.90;;;;;;5053585;28;20060;-84
2021/11/14 05:50:38;;;;;;;35.63;24.50;;;9.50;99.90;;;;;;5053436;28;20036;-83
2021/11/14 05:53:05;;;;;;;36.60;24.53;;;9.50;99.90;;;;;;5035514;28;20033;-83
2021/11/14 05:55:31;;;;;;;39.97;24.83;;;9.50;99.90;;;;;;5035092;28;20034;-83
2021/11/14 05:58:18;;;;;;;41.83;26.30;;;9.50;99.90;;;;;;5043368;28;20116;-82
2021/11/14 06:03:30;;;;;;;41.93;26.30;;;9.40;99.90;;;;;;5033651;28;20532;-84
2021/11/14 06:05:55;;;;;;;44.17;27.23;;;9.40;99.90;;;;;;5048567;28;20038;-83
2021/11/14 06:08:21;;;;;;;40.03;26.97;;;9.40;99.90;;;;;;5031662;28;20083;-82
2021/11/14 06:10:52;;;;;;;42.43;25.93;;;9.30;99.90;;;;;;5047581;28;20033;-84
2021/11/14 06:13:23;;;;;;;42.63;27.07;;;9.30;99.90;;;;;;5048700;28;20029;-82
2021/11/14 06:15:50;;;;;;;41.30;25.97;;;9.30;99.90;;;;;;5048288;28;20030;-84
2021/11/14 06:18:16;;;;;;;40.97;26.27;;;9.30;99.90;;;;;;5031565;28;20049;-83
2021/11/14 06:20:43;;;;;;;44.17;26.47;;;9.30;99.90;;;;;;5032683;28;20026;-82
2021/11/14 06:23:10;;;;;;;41.27;26.80;;;9.30;99.90;;;;;;5033175;28;20063;-82
2021/11/14 06:25:36;;;;;;;43.27;26.60;;;9.30;99.90;;;;;;5048429;28;20431;-82
2021/11/14 06:28:04;;;;;;;43.37;25.77;;;9.30;99.90;;;;;;5048830;28;20057;-83
2021/11/14 06:30:30;;;;;;;39.67;25.13;;;9.20;99.90;;;;;;5048478;28;20021;-82
2021/11/14 06:32:56;;;;;;;44.13;25.27;;;9.20;99.90;;;;;;5048978;28;20383;-83
2021/11/14 06:35:23;;;;;;;45.33;25.83;;;9.20;99.90;;;;;;5033865;28;20128;-83
2021/11/14 06:37:49;;;;;;;42.00;24.93;;;9.20;99.90;;;;;;5034363;28;20017;-83
2021/11/14 06:40:15;;;;;;;40.90;23.20;;;9.20;99.90;;;;;;5031900;28;20593;-84
2021/11/14 06:42:41;;;;;;;40.77;23.53;;;9.30;99.90;;;;;;5049087;28;20371;-83
2021/11/14 06:45:08;;;;;;;36.93;23.30;;;9.20;99.90;;;;;;5032563;28;20075;-83
2021/11/14 06:47:36;;;;;;;38.27;22.23;;;9.20;99.90;;;;;;5032872;28;20053;-82
2021/11/14 06:50:02;;;;;;;39.47;22.43;;;9.20;99.90;;;;;;5032133;28;20036;-82
2021/11/14 06:52:28;;;;;;;36.53;20.87;;;9.20;99.90;;;;;;5033633;28;20029;-82
2021/11/14 06:54:54;;;;;;;35.80;19.37;;;9.20;99.90;;;;;;5031886;28;20026;-82
2021/11/14 06:57:20;;;;;;;35.80;19.63;;;9.20;99.90;;;;;;5048129;28;20124;-82
2021/11/14 06:59:47;;;;;;;35.63;20.40;;;9.20;99.90;;;;;;5030371;28;20042;-82
2021/11/14 07:02:12;;;;;;;32.97;19.73;;;9.10;99.90;;;;;;5031292;28;20041;-82
2021/11/14 07:04:40;;;;;;;29.23;17.80;;;9.10;99.90;;;;;;5047799;28;20045;-82
2021/11/14 07:07:06;;;;;;;35.97;20.00;;;9.10;99.90;;;;;;5048812;28;20045;-83
2021/11/14 07:09:32;;;;;;;34.73;19.83;;;9.10;99.90;;;;;;5032287;28;20048;-83
2021/11/14 07:11:58;;;;;;;37.33;19.90;;;9.10;99.90;;;;;;5033400;28;20037;-87
2021/11/14 07:14:25;;;;;;;34.13;20.03;;;9.10;99.90;;;;;;5048208;28;20030;-82
2021/11/14 07:16:51;;;;;;;36.63;19.30;;;9.10;99.90;;;;;;5032773;28;20032;-83
2021/11/14 07:19:18;;;;;;;38.77;20.90;;;9.10;99.90;;;;;;5031122;28;20030;-84
2021/11/14 07:21:44;;;;;;;34.33;19.77;;;9.00;99.90;;;;;;5041271;28;20493;-83
2021/11/14 07:24:10;;;;;;;36.87;21.20;;;9.10;99.90;;;;;;5027631;28;20088;-83
2021/11/14 07:26:36;;;;;;;35.70;20.07;;;9.10;99.90;;;;;;5031420;28;20113;-82
2021/11/14 07:29:03;;;;;;;41.00;22.20;;;9.10;99.90;;;;;;5014225;28;20112;-83
2021/11/14 07:31:29;;;;;;;38.20;20.70;;;9.10;99.90;;;;;;5015605;28;20033;-86
2021/11/14 07:33:55;;;;;;;38.63;21.80;;;9.10;99.90;;;;;;5015212;28;20704;-86
2021/11/14 07:36:20;;;;;;;36.70;21.30;;;9.10;99.90;;;;;;5015394;28;20032;-85
2021/11/14 07:38:47;;;;;;;37.40;21.87;;;9.20;99.90;;;;;;5031816;28;20402;-84
2021/11/14 07:41:13;;;;;;;43.60;24.33;;;9.20;99.90;;;;;;5015061;28;20102;-83
2021/11/14 07:43:39;;;;;;;40.67;22.43;;;9.20;99.90;;;;;;5015772;28;20459;-84
2021/11/14 07:46:06;;;;;;;40.87;23.20;;;9.20;99.90;;;;;;5033012;28;20139;-84
2021/11/14 07:48:32;;;;;;;42.17;23.13;;;9.20;99.90;;;;;;5015610;28;20033;-84
2021/11/14 07:50:58;;;;;;;40.70;22.93;;;9.10;99.90;;;;;;5031482;28;20048;-85
2021/11/14 07:53:24;;;;;;;39.47;23.33;;;9.20;99.90;;;;;;5031908;28;20037;-82
2021/11/14 07:55:52;;;;;;;41.90;23.53;;;9.20;99.90;;;;;;5032434;28;20124;-82
2021/11/14 07:58:19;;;;;;;38.03;23.63;;;9.20;99.90;;;;;;5018166;28;20029;-84
2021/11/14 08:00:45;;;;;;;41.50;21.90;;;9.20;99.90;;;;;;5036788;28;20026;-83
2021/11/14 08:03:11;;;;;;;43.73;23.53;;;9.20;99.90;;;;;;5038578;28;20044;-85
2021/11/14 08:05:41;;;;;;;42.60;24.07;;;9.30;99.90;;;;;;5037426;28;20059;-85
2021/11/14 08:08:08;;;;;;;40.00;23.23;;;9.40;99.90;;;;;;5036806;28;20129;-85
2021/11/14 08:10:35;;;;;;;39.17;22.77;;;9.80;99.90;;;;;;5050577;28;20426;-84
2021/11/14 08:13:02;;;;;;;38.03;20.70;;;10.10;99.90;;;;;;5057860;28;20064;-83
2021/11/14 08:15:28;;;;;;;36.30;20.27;;;10.00;99.90;;;;;;5056644;28;20024;-82
2021/11/14 08:17:54;;;;;;;34.40;20.40;;;9.90;99.90;;;;;;5039927;28;20459;-82
2021/11/14 08:20:20;;;;;;;32.90;19.93;;;9.80;99.90;;;;;;5059119;28;20119;-84
2021/11/14 08:22:47;;;;;;;34.80;20.67;;;9.70;99.90;;;;;;5062543;28;20033;-83
2021/11/14 08:25:15;;;;;;;34.17;19.77;;;9.60;99.90;;;;;;5056139;28;20228;-84
2021/11/14 08:27:41;;;;;;;34.53;20.17;;;9.60;99.90;;;;;;5056421;28;20040;-84
2021/11/14 08:30:10;;;;;;;35.27;20.87;;;9.50;99.90;;;;;;5034912;28;20117;-84
2021/11/14 08:32:37;;;;;;;38.90;21.45;;;9.40;99.90;;;;;;5037624;28;20113;-84
2021/11/14 08:35:04;;;;;;;34.17;19.83;;;9.40;99.90;;;;;;5053516;28;20170;-84
2021/11/14 08:37:30;;;;;;;40.57;21.77;;;9.30;99.90;;;;;;5037975;28;20033;-83
2021/11/14 08:39:56;;;;;;;37.27;22.27;;;9.30;99.90;;;;;;5036417;28;20044;-84
2021/11/14 08:42:22;;;;;;;33.83;20.43;;;9.30;99.90;;;;;;5054676;28;20025;-83
2021/11/14 08:44:48;;;;;;;36.47;21.70;;;9.30;99.90;;;;;;5036752;28;20056;-83
2021/11/14 08:47:14;;;;;;;33.40;19.80;;;9.30;99.90;;;;;;5039134;28;20079;-84
2021/11/14 08:49:40;;;;;;;38.70;21.40;;;9.30;99.90;;;;;;5056575;28;20029;-84
2021/11/14 08:52:07;;;;;;;36.23;21.27;;;9.40;99.90;;;;;;5039606;28;20496;-84
2021/11/14 08:54:33;;;;;;;37.90;21.40;;;9.40;99.90;;;;;;5057733;28;20037;-84
2021/11/14 08:56:59;;;;;;;39.83;21.70;;;9.40;99.90;;;;;;5056440;28;20025;-84
2021/11/14 08:59:28;;;;;;;35.73;21.63;;;9.50;99.90;;;;;;5055317;28;20139;-83
2021/11/14 09:01:54;;;;;;;40.83;23.57;;;9.40;99.90;;;;;;5038470;28;20040;-83
2021/11/14 09:04:20;;;;;;;38.23;22.77;;;9.40;99.90;;;;;;5056886;28;20028;-83
2021/11/14 09:06:46;;;;;;;36.90;22.30;;;9.40;99.90;;;;;;5038725;28;20055;-83
2021/11/14 09:09:13;;;;;;;38.73;23.50;;;9.50;99.90;;;;;;5055389;28;20040;-84
2021/11/14 09:11:41;;;;;;;36.07;22.27;;;9.50;99.90;;;;;;5054435;28;20037;-84
2021/11/14 09:14:08;;;;;;;37.93;22.57;;;9.50;99.90;;;;;;5054732;28;20033;-84
2021/11/14 09:16:34;;;;;;;39.67;23.13;;;9.50;99.90;;;;;;5053103;28;20287;-85
2021/11/14 09:19:00;;;;;;;37.47;23.13;;;9.50;99.90;;;;;;5053965;28;20126;-83
2021/11/14 09:21:26;;;;;;;36.47;23.13;;;9.50;99.90;;;;;;5053327;28;20513;-84
2021/11/14 09:23:52;;;;;;;36.23;21.57;;;9.50;99.90;;;;;;5053210;28;20444;-84
2021/11/14 09:26:18;;;;;;;38.10;23.00;;;9.50;99.90;;;;;;5035994;28;20036;-83
2021/11/14 09:28:44;;;;;;;34.17;20.77;;;9.60;99.90;;;;;;5054293;28;20037;-83
2021/11/14 09:31:11;;;;;;;33.43;20.97;;;9.60;99.90;;;;;;5034668;28;20400;-84
2021/11/14 09:33:39;;;;;;;34.33;20.70;;;9.70;99.90;;;;;;5053246;28;20025;-83
2021/11/14 09:36:06;;;;;;;30.37;19.60;;;9.70;99.90;;;;;;5035106;28;20068;-83
2021/11/14 09:38:32;;;;;;;32.63;20.90;;;9.70;99.90;;;;;;5035127;28;20071;-83
2021/11/14 09:41:00;;;;;;;33.90;19.77;;;9.80;99.90;;;;;;5052623;28;20500;-83
2021/11/14 09:43:28;;;;;;;35.20;20.30;;;9.80;99.90;;;;;;5035784;28;20474;-84
2021/11/14 09:45:54;;;;;;;31.03;18.57;;;9.80;99.90;;;;;;5034999;28;20033;-83
2021/11/14 09:48:21;;;;;;;33.77;19.60;;;9.90;99.90;;;;;;5053371;28;20082;-84
2021/11/14 09:50:49;;;;;;;33.73;19.27;;;9.90;99.90;;;;;;5036204;28;20158;-84
2021/11/14 09:53:15;;;;;;;27.93;18.27;;;9.90;99.90;;;;;;5055073;28;20051;-83
2021/11/14 09:55:41;;;;;;;30.03;18.30;;;10.00;99.90;;;;;;5035732;28;20033;-83
2021/11/14 09:58:07;;;;;;;27.93;17.17;;;10.00;99.90;;;;;;5036099;28;20028;-83
2021/11/14 10:00:35;;;;;;;31.43;18.80;;;10.00;99.90;;;;;;5017484;28;20434;-83
2021/11/14 10:03:01;;;;;;;29.83;17.73;;;10.00;99.90;;;;;;5053082;28;20021;-84
2021/11/14 10:05:27;;;;;;;25.30;16.93;;;10.00;99.90;;;;;;5053441;28;20342;-83
2021/11/14 10:07:58;;;;;;;28.87;16.90;;;10.00;99.90;;;;;;5054295;28;20124;-84
2021/11/14 10:10:27;;;;;;;27.47;17.37;;;10.00;99.90;;;;;;5051715;28;20095;-84
2021/11/14 10:12:54;;;;;;;29.00;18.33;;;10.00;99.90;;;;;;5053844;28;20041;-84
2021/11/14 10:15:22;;;;;;;28.27;17.90;;;9.90;99.90;;;;;;5035182;28;20025;-83
2021/11/14 10:17:59;;;;;;;27.37;17.63;;;10.00;99.90;;;;;;5036066;28;20040;-84
2021/11/14 10:20:26;;;;;;;28.90;18.00;;;10.00;99.90;;;;;;5052803;28;20033;-83
2021/11/14 10:23:00;;;;;;;28.10;17.50;;;10.00;99.90;;;;;;5052391;28;20090;-83
2021/11/14 10:25:27;;;;;;;24.23;15.50;;;10.00;99.90;;;;;;5034261;28;20063;-83
2021/11/14 10:27:57;;;;;;;22.67;15.63;;;10.00;99.90;;;;;;5034382;28;20098;-83
2021/11/14 10:30:26;;;;;;;21.58;14.63;;;10.00;99.90;;;;;;5050788;28;20112;-83
2021/11/14 10:32:52;;;;;;;;;;;10.00;99.90;;;;;;5052654;28;20053;-83
2021/11/14 10:35:19;;;;;;;20.43;13.57;;;10.00;99.90;;;;;;5052336;28;19925;-83
2021/11/14 10:37:45;;;;;;;20.50;14.00;;;9.90;99.90;;;;;;5035520;28;20060;-83
2021/11/14 10:40:27;;;;;;;22.47;15.33;;;9.90;99.90;;;;;;5034525;28;20429;-83
2021/11/14 10:42:58;;;;;;;23.90;14.03;;;10.00;99.90;;;;;;5035261;28;20029;-83
2021/11/14 10:45:26;;;;;;;18.77;13.10;;;10.00;99.90;;;;;;5051819;28;20505;-83
2021/11/14 10:47:58;;;;;;;20.00;13.27;;;10.10;99.90;;;;;;5035587;28;20115;-84
2021/11/14 10:50:28;;;;;;;17.03;12.13;;;10.10;99.90;;;;;;5052763;28;20382;-83
2021/11/14 10:52:56;;;;;;;17.53;12.07;;;10.20;99.90;;;;;;5035310;28;20757;-83
2021/11/14 10:55:24;;;;;;;15.17;10.90;;;10.20;99.90;;;;;;5034375;28;20080;-83
2021/11/14 10:57:50;;;;;;;16.07;11.20;;;10.20;99.90;;;;;;5051601;28;20068;-84
2021/11/14 11:00:18;;;;;;;14.13;9.93;;;10.30;99.90;;;;;;5032891;28;20560;-83
2021/11/14 11:02:46;;;;;;;15.20;11.20;;;10.20;99.90;;;;;;5052401;28;20055;-84
2021/11/14 11:05:24;;;;;;;17.23;11.90;;;10.30;99.90;;;;;;5050042;28;20103;-83
2021/11/14 11:08:19;;;;;;;18.67;13.20;;;10.30;99.90;;;;;;5052095;28;20254;-84
2021/11/14 11:10:46;;;;;;;20.70;14.30;;;10.30;99.90;;;;;;5051092;28;20163;-84
2021/11/14 11:13:16;;;;;;;21.20;15.17;;;10.30;99.90;;;;;;5033914;28;20029;-83
2021/11/14 11:15:41;;;;;;;;;;;10.40;99.90;;;;;;5051655;28;20040;-83
2021/11/14 11:18:10;;;;;;;21.77;14.90;;;10.40;99.90;;;;;;5051168;28;19905;-84
2021/11/14 11:20:36;;;;;;;21.27;15.55;;;10.40;99.90;;;;;;5033217;28;20028;-83
2021/11/14 11:23:07;;;;;;;22.13;15.43;;;10.50;99.90;;;;;;5034132;28;20040;-83
2021/11/14 11:25:52;;;;;;;20.03;14.57;;;10.40;99.90;;;;;;5051749;28;20041;-83
2021/11/14 11:28:32;;;;;;;20.73;14.57;;;10.50;99.90;;;;;;5051451;28;20037;-83
2021/11/14 11:31:05;;;;;;;20.53;13.63;;;10.50;99.90;;;;;;5032291;28;20520;-83
2021/11/14 11:33:33;;;;;;;20.07;13.73;;;10.50;99.90;;;;;;5032863;28;20029;-84
2021/11/14 11:36:00;;;;;;;17.58;12.27;;;10.50;99.90;;;;;;5034209;28;20033;-84
2021/11/14 11:38:28;;;;;;;19.93;12.20;;;10.50;99.90;;;;;;5034238;28;20029;-83
2021/11/14 11:40:56;;;;;;;18.23;11.97;;;10.50;99.90;;;;;;5051706;28;20037;-84
2021/11/14 11:43:22;;;;;;;16.83;12.37;;;10.50;99.90;;;;;;5033995;28;20541;-84
2021/11/14 11:45:49;;;;;;;17.63;11.83;;;10.50;99.90;;;;;;5032526;28;20028;-84
2021/11/14 11:48:26;;;;;;;15.97;10.53;;;10.60;99.90;;;;;;5051034;28;20033;-83
2021/11/14 11:51:05;;;;;;;15.53;10.60;;;10.60;99.90;;;;;;5051598;28;20027;-83
2021/11/14 11:53:31;;;;;;;15.45;10.15;;;10.50;99.90;;;;;;5051785;28;20312;-84
2021/11/14 11:56:08;;;;;;;15.93;10.93;;;10.50;99.90;;;;;;5052058;28;20102;-83
2021/11/14 11:58:51;;;;;;;16.37;11.10;;;10.60;99.90;;;;;;5051254;28;20100;-83
2021/11/14 12:01:29;;;;;;;17.83;12.03;;;10.60;99.90;;;;;;5032029;28;20112;-83
2021/11/14 12:04:11;;;;;;;19.40;13.23;;;10.60;99.90;;;;;;5032739;28;20029;-83
2021/11/14 12:06:49;;;;;;;21.93;14.00;;;10.60;99.90;;;;;;5051568;28;20072;-84
2021/11/14 12:09:17;;;;;;;23.93;15.03;;;10.60;99.90;;;;;;5050990;28;20118;-83
2021/11/14 12:11:46;;;;;;;20.90;14.13;;;10.60;99.90;;;;;;5049878;28;20406;-83
2021/11/14 12:14:28;;;;;;;23.75;14.80;;;10.60;99.90;;;;;;5034251;28;20033;-84
2021/11/14 12:17:00;;;;;;;18.73;12.93;;;10.60;99.90;;;;;;5050403;28;20557;-84
2021/11/14 12:19:28;;;;;;;20.40;14.17;;;10.60;99.90;;;;;;5033211;28;20032;-84
2021/11/14 12:21:57;;;;;;;20.20;13.57;;;10.60;99.90;;;;;;5051884;28;20427;-84
2021/11/14 12:24:23;;;;;;;20.33;13.45;;;10.70;99.90;;;;;;5052502;28;20131;-84
2021/11/14 12:26:48;;;;;;;19.70;13.63;;;10.70;99.90;;;;;;5051018;28;20138;-83
2021/11/14 12:29:30;;;;;;;19.37;13.10;;;10.70;99.90;;;;;;5034451;28;20053;-84
2021/11/14 12:32:26;;;;;;;21.77;14.00;;;10.60;99.90;;;;;;5034441;28;20493;-83
2021/11/14 12:35:01;;;;;;;19.53;13.70;;;10.60;99.90;;;;;;5035518;28;20160;-83
2021/11/14 12:37:26;;;;;;;19.07;13.30;;;10.60;99.90;;;;;;5036322;28;20029;-85
2021/11/14 12:39:52;;;;;;;19.53;13.60;;;10.60;99.90;;;;;;5054053;28;20528;-85
2021/11/14 12:42:19;;;;;;;21.50;13.97;;;10.60;99.90;;;;;;5055102;28;20473;-84
2021/11/14 12:45:03;;;;;;;17.87;13.37;;;10.60;99.90;;;;;;5057973;28;20024;-84
2021/11/14 12:47:39;;;;;;;18.33;13.07;;;10.60;99.90;;;;;;5041734;28;20040;-84
2021/11/14 12:50:23;;;;;;;20.13;13.63;;;10.50;99.90;;;;;;5036070;28;20401;-84
2021/11/14 12:53:09;;;;;;;16.57;11.73;;;10.50;99.90;;;;;;5055098;28;20029;-83